Time;durP1;ratioP1;P1;durP2;ratioP2;P2;SDS_P1;SDS_P2;PMS_P1;PMS_P2;Temp;Humidity;BMP_temperature;BMP_pressure;BME280_temperature;BME280_humidity;BME280_pressure;Samples;Min_cycle;Max_cycle;Signal;HPM_P1;HPM_P2
2021/10/10 00:00:56;;;;;;;17.07;13.47;;;;;;;;;;6232175;28;20553;-55
2021/10/10 00:04:17;;;;;;;13.03;11.17;;;;;;;;;;6217605;28;20240;-54
2021/10/10 00:07:41;;;;;;;11.57;10.33;;;;;;;;;;6240864;28;20225;-55
2021/10/10 00:11:01;;;;;;;12.83;11.63;;;;;;;;;;6241072;28;20209;-53
2021/10/10 00:14:22;;;;;;;10.23;9.33;;;;;;;;;;6232772;28;20225;-52
2021/10/10 00:17:44;;;;;;;11.30;10.20;;;;;;;;;;6233935;28;20236;-52
2021/10/10 00:21:05;;;;;;;13.53;10.53;;;;;;;;;;6231892;28;20240;-52
2021/10/10 00:24:26;;;;;;;12.17;10.23;;;;;;;;;;6230394;28;20236;-52
2021/10/10 00:27:46;;;;;;;11.53;10.40;;;;;;;;;;6235545;28;20220;-51
2021/10/10 00:31:06;;;;;;;12.10;10.93;;;;;;;;;;6234256;28;20542;-53
2021/10/10 00:34:28;;;;;;;10.73;9.73;;;;;;;;;;6237575;28;20330;-50
2021/10/10 00:37:48;;;;;;;11.60;10.50;;;;;;;;;;6234874;28;20228;-49
2021/10/10 00:41:09;;;;;;;13.67;11.90;;;;;;;;;;6237673;28;20220;-51
2021/10/10 00:44:30;;;;;;;14.00;10.77;;;;;;;;;;6225179;28;20764;-55
2021/10/10 00:47:50;;;;;;;11.07;9.97;;;;;;;;;;6232014;28;20265;-48
2021/10/10 00:51:13;;;;;;;11.83;10.63;;;;;;;;;;6231784;28;20817;-48
2021/10/10 00:54:35;;;;;;;10.43;9.03;;;;;;;;;;6233726;28;20300;-47
2021/10/10 00:57:57;;;;;;;12.23;11.07;;;;;;;;;;6233740;28;20518;-48
2021/10/10 01:01:19;;;;;;;10.20;9.20;;;;;;;;;;6232236;28;20224;-52
2021/10/10 01:04:40;;;;;;;10.47;9.50;;;;;;;;;;6232121;28;20233;-53
2021/10/10 01:08:02;;;;;;;10.77;9.77;;;;;;;;;;6228489;28;20229;-55
2021/10/10 01:11:26;;;;;;;10.70;9.70;;;;;;;;;;6234042;28;20201;-51
2021/10/10 01:14:47;;;;;;;11.23;10.00;;;;;;;;;;6233646;28;20586;-52
2021/10/10 01:18:07;;;;;;;9.87;8.87;;;;;;;;;;6230361;28;20231;-49
2021/10/10 01:21:29;;;;;;;11.30;10.10;;;;;;;;;;6234347;28;20221;-52
2021/10/10 01:24:49;;;;;;;12.57;10.00;;;;;;;;;;6232282;28;20198;-51
2021/10/10 01:28:11;;;;;;;11.63;10.30;;;;;;;;;;6228607;28;20263;-54
2021/10/10 01:31:31;;;;;;;9.87;8.87;;;;;;;;;;6233174;28;20827;-54
2021/10/10 01:34:52;;;;;;;11.43;9.07;;;;;;;;;;6233409;28;20205;-53
2021/10/10 01:38:17;;;;;;;12.83;10.20;;;;;;;;;;6234220;28;20621;-51
2021/10/10 01:41:38;;;;;;;12.03;10.87;;;;;;;;;;6230631;28;20225;-53
2021/10/10 01:44:58;;;;;;;11.77;10.47;;;;;;;;;;6233090;28;20201;-50
2021/10/10 01:48:19;;;;;;;10.80;9.23;;;;;;;;;;6228193;28;20228;-51
2021/10/10 01:51:39;;;;;;;9.73;8.93;;;;;;;;;;6235126;28;20192;-49
2021/10/10 01:55:01;;;;;;;10.57;9.30;;;;;;;;;;6234601;28;20586;-51
2021/10/10 01:58:21;;;;;;;12.83;9.33;;;;;;;;;;6231440;28;20236;-52
2021/10/10 02:01:42;;;;;;;11.33;9.40;;;;;;;;;;6227828;28;20225;-53
2021/10/10 02:05:02;;;;;;;11.73;8.83;;;;;;;;;;6232303;28;20201;-50
2021/10/10 02:08:23;;;;;;;10.87;8.93;;;;;;;;;;6231092;28;20509;-53
2021/10/10 02:11:45;;;;;;;10.03;9.03;;;;;;;;;;6228887;28;20208;-53
2021/10/10 02:15:06;;;;;;;12.30;9.73;;;;;;;;;;6231908;28;20196;-52
2021/10/10 02:18:26;;;;;;;10.67;8.93;;;;;;;;;;6231342;28;20236;-50
2021/10/10 02:21:47;;;;;;;10.67;9.63;;;;;;;;;;6230090;28;20232;-47
2021/10/10 02:25:08;;;;;;;25.67;9.87;;;;;;;;;;6230551;28;20225;-52
2021/10/10 02:28:29;;;;;;;9.60;8.70;;;;;;;;;;6231937;28;20237;-51
2021/10/10 02:31:50;;;;;;;14.40;9.00;;;;;;;;;;6231028;28;20228;-54
2021/10/10 02:35:10;;;;;;;10.00;9.07;;;;;;;;;;6232927;28;20264;-48
2021/10/10 02:38:31;;;;;;;9.80;8.90;;;;;;;;;;6227844;28;20224;-52
2021/10/10 02:41:51;;;;;;;12.07;10.33;;;;;;;;;;6230974;28;20329;-51
2021/10/10 02:45:13;;;;;;;13.50;10.23;;;;;;;;;;6232526;28;20212;-49
2021/10/10 02:48:34;;;;;;;10.63;9.63;;;;;;;;;;6229012;28;20232;-50
2021/10/10 02:51:54;;;;;;;12.03;10.10;;;;;;;;;;6235250;28;20319;-53
2021/10/10 02:55:15;;;;;;;10.67;9.67;;;;;;;;;;6232994;28;20212;-48
2021/10/10 02:58:35;;;;;;;11.37;10.17;;;;;;;;;;6226293;28;20228;-52
2021/10/10 03:01:57;;;;;;;13.17;10.40;;;;;;;;;;6227357;28;20228;-47
2021/10/10 03:05:17;;;;;;;11.00;10.00;;;;;;;;;;6226990;28;20631;-53
2021/10/10 03:08:38;;;;;;;13.40;10.63;;;;;;;;;;6228106;28;20284;-50
2021/10/10 03:11:58;;;;;;;11.63;10.43;;;;;;;;;;6229439;28;20231;-50
2021/10/10 03:15:19;;;;;;;13.80;12.23;;;;;;;;;;6229465;28;20280;-52
2021/10/10 03:18:41;;;;;;;11.37;10.23;;;;;;;;;;6226521;28;20236;-50
2021/10/10 03:22:02;;;;;;;14.33;11.97;;;;;;;;;;6229001;28;20684;-53
2021/10/10 03:25:22;;;;;;;13.93;11.03;;;;;;;;;;6234200;28;20229;-50
2021/10/10 03:28:43;;;;;;;12.03;10.87;;;;;;;;;;6235953;28;20232;-54
2021/10/10 03:32:04;;;;;;;12.10;10.87;;;;;;;;;;6236284;28;20228;-52
2021/10/10 03:35:25;;;;;;;19.80;11.53;;;;;;;;;;6237166;28;20220;-51
2021/10/10 03:38:46;;;;;;;13.50;12.10;;;;;;;;;;6236878;28;20236;-52
2021/10/10 03:42:06;;;;;;;12.30;11.13;;;;;;;;;;6231229;28;20271;-52
2021/10/10 03:45:27;;;;;;;12.17;10.87;;;;;;;;;;6238543;28;20205;-53
2021/10/10 03:48:47;;;;;;;17.87;16.07;;;;;;;;;;6232531;28;20426;-50
2021/10/10 03:52:09;;;;;;;13.37;11.97;;;;;;;;;;6236068;28;20528;-52
2021/10/10 03:55:32;;;;;;;11.77;10.57;;;;;;;;;;6239397;28;20221;-52
2021/10/10 03:58:53;;;;;;;14.03;11.53;;;;;;;;;;6235875;28;20232;-47
2021/10/10 04:02:13;;;;;;;12.97;10.50;;;;;;;;;;6237976;28;20228;-53
2021/10/10 04:05:40;;;;;;;11.87;10.77;;;;;;;;;;6240229;28;20201;-50
2021/10/10 04:09:02;;;;;;;12.63;11.33;;;;;;;;;;6240806;28;20312;-52
2021/10/10 04:12:23;;;;;;;12.63;11.30;;;;;;;;;;6238612;28;20236;-52
2021/10/10 04:15:43;;;;;;;12.43;11.10;;;;;;;;;;6240898;28;20193;-49
2021/10/10 04:19:04;;;;;;;12.83;11.53;;;;;;;;;;6242702;28;20244;-53
2021/10/10 04:22:24;;;;;;;12.47;11.17;;;;;;;;;;6241786;28;20229;-49
2021/10/10 04:25:45;;;;;;;14.93;12.30;;;;;;;;;;6240465;28;20607;-47
2021/10/10 04:29:06;;;;;;;11.87;10.70;;;;;;;;;;6239713;28;20233;-48
2021/10/10 04:32:27;;;;;;;12.83;11.17;;;;;;;;;;6237595;28;20228;-50
2021/10/10 04:35:49;;;;;;;12.10;10.77;;;;;;;;;;6241568;28;20196;-50
2021/10/10 04:39:09;;;;;;;13.83;11.83;;;;;;;;;;6240900;28;20225;-54
2021/10/10 04:42:33;;;;;;;12.57;11.27;;;;;;;;;;6243137;28;20233;-50
2021/10/10 04:45:53;;;;;;;12.90;11.53;;;;;;;;;;6241034;28;20212;-48
2021/10/10 04:49:14;;;;;;;13.60;11.70;;;;;;;;;;6237606;28;20232;-55
2021/10/10 04:52:35;;;;;;;12.47;11.17;;;;;;;;;;6240481;28;20268;-50
2021/10/10 04:55:56;;;;;;;12.23;11.03;;;;;;;;;;6241609;28;20216;-52
2021/10/10 04:59:17;;;;;;;12.60;11.30;;;;;;;;;;6239419;28;20224;-48
2021/10/10 05:02:38;;;;;;;12.33;11.17;;;;;;;;;;6236624;28;20236;-52
2021/10/10 05:05:58;;;;;;;12.10;10.87;;;;;;;;;;6232130;28;22141;-52
2021/10/10 05:09:19;;;;;;;11.87;10.67;;;;;;;;;;6240399;28;20232;-50
2021/10/10 05:12:39;;;;;;;12.80;11.17;;;;;;;;;;6240925;28;20547;-53
2021/10/10 05:16:01;;;;;;;12.60;11.27;;;;;;;;;;6237802;28;20185;-48
2021/10/10 05:19:21;;;;;;;15.23;13.67;;;;;;;;;;6234326;28;20805;-53
2021/10/10 05:22:42;;;;;;;14.03;12.00;;;;;;;;;;6235665;28;20241;-50
2021/10/10 05:26:02;;;;;;;15.60;13.33;;;;;;;;;;6239946;28;20224;-49
2021/10/10 05:29:23;;;;;;;13.70;12.50;;;;;;;;;;6239656;28;20229;-50
2021/10/10 05:32:45;;;;;;;11.97;10.70;;;;;;;;;;6238664;28;20547;-53
2021/10/10 05:36:05;;;;;;;13.07;11.23;;;;;;;;;;6239819;28;20193;-53
2021/10/10 05:39:26;;;;;;;10.57;9.57;;;;;;;;;;6237919;28;20602;-52
2021/10/10 05:42:46;;;;;;;12.50;10.27;;;;;;;;;;6238229;28;20229;-53
2021/10/10 05:46:07;;;;;;;12.00;10.80;;;;;;;;;;6239660;28;20503;-52
2021/10/10 05:49:29;;;;;;;13.17;11.80;;;;;;;;;;6226327;28;20225;-50
2021/10/10 05:52:50;;;;;;;12.47;11.03;;;;;;;;;;6240608;28;20248;-54
2021/10/10 05:56:11;;;;;;;14.40;12.50;;;;;;;;;;6238894;28;20220;-51
2021/10/10 05:59:33;;;;;;;12.53;11.20;;;;;;;;;;6237568;28;20209;-53
2021/10/10 06:02:54;;;;;;;11.73;10.47;;;;;;;;;;6234044;28;20243;-49
2021/10/10 06:06:15;;;;;;;15.80;12.80;;;;;;;;;;6238932;28;20303;-55
2021/10/10 06:09:36;;;;;;;12.93;11.63;;;;;;;;;;6240862;28;20217;-51
2021/10/10 06:12:57;;;;;;;16.17;12.47;;;;;;;;;;6236794;28;20236;-51
2021/10/10 06:16:17;;;;;;;14.00;12.13;;;;;;;;;;6237406;28;21773;-51
2021/10/10 06:19:38;;;;;;;13.10;11.60;;;;;;;;;;6234079;28;20220;-53
2021/10/10 06:22:59;;;;;;;13.77;12.23;;;;;;;;;;6228403;28;20236;-54
2021/10/10 06:26:20;;;;;;;14.30;11.43;;;;;;;;;;6234766;28;20828;-49
2021/10/10 06:29:41;;;;;;;14.77;12.50;;;;;;;;;;6263337;28;20219;-53
2021/10/10 06:33:01;;;;;;;13.73;12.30;;;;;;;;;;6253499;28;20621;-53
2021/10/10 06:36:21;;;;;;;13.33;11.77;;;;;;;;;;6253047;28;20223;-52
2021/10/10 06:39:43;;;;;;;14.17;12.63;;;;;;;;;;6252167;28;21033;-48
2021/10/10 06:43:04;;;;;;;13.43;12.10;;;;;;;;;;6258577;28;20235;-52
2021/10/10 06:46:25;;;;;;;11.93;10.77;;;;;;;;;;6256555;28;20240;-52
2021/10/10 06:49:46;;;;;;;13.77;11.60;;;;;;;;;;6253525;28;20212;-50
2021/10/10 06:53:06;;;;;;;12.73;11.53;;;;;;;;;;6253591;28;20235;-54
2021/10/10 06:56:28;;;;;;;12.17;10.97;;;;;;;;;;6252624;28;20212;-50
2021/10/10 06:59:49;;;;;;;17.47;13.03;;;;;;;;;;6256793;28;20189;-54
2021/10/10 07:03:09;;;;;;;11.53;10.20;;;;;;;;;;6255727;28;20262;-51
2021/10/10 07:06:30;;;;;;;12.23;10.63;;;;;;;;;;6253923;28;22289;-51
2021/10/10 07:09:50;;;;;;;13.17;11.97;;;;;;;;;;6257911;28;20192;-51
2021/10/10 07:13:12;;;;;;;14.60;12.00;;;;;;;;;;6253060;28;20660;-53
2021/10/10 07:16:34;;;;;;;13.23;11.93;;;;;;;;;;6252821;28;20208;-46
2021/10/10 07:19:58;;;;;;;14.37;12.23;;;;;;;;;;6251526;28;20232;-51
2021/10/10 07:23:29;;;;;;;14.73;12.90;;;;;;;;;;6251535;28;20236;-49
2021/10/10 07:26:50;;;;;;;17.47;13.60;;;;;;;;;;6259397;28;20251;-49
2021/10/10 07:30:13;;;;;;;15.73;12.37;;;;;;;;;;6259476;28;20197;-50
2021/10/10 07:33:33;;;;;;;14.43;12.37;;;;;;;;;;6254284;28;20497;-50
2021/10/10 07:36:53;;;;;;;14.30;12.80;;;;;;;;;;6255836;28;20228;-54
2021/10/10 07:40:14;;;;;;;13.70;11.93;;;;;;;;;;6262546;28;20188;-50
2021/10/10 07:43:34;;;;;;;16.07;13.20;;;;;;;;;;6256988;28;20319;-49
2021/10/10 07:47:06;;;;;;;18.73;12.67;;;;;;;;;;6257960;28;20510;-52
2021/10/10 07:50:27;;;;;;;14.93;12.77;;;;;;;;;;6264914;28;21915;-50
2021/10/10 07:53:47;;;;;;;14.80;12.83;;;;;;;;;;6258763;28;20220;-53
2021/10/10 07:57:08;;;;;;;18.87;13.37;;;;;;;;;;6264757;28;20224;-50
2021/10/10 08:00:30;;;;;;;13.50;12.10;;;;;;;;;;6258823;28;20192;-53
2021/10/10 08:03:51;;;;;;;13.87;11.87;;;;;;;;;;6260508;28;20267;-49
2021/10/10 08:07:12;;;;;;;14.20;12.70;;;;;;;;;;6265653;28;20251;-50
2021/10/10 08:10:33;;;;;;;19.90;13.83;;;;;;;;;;6263055;28;20216;-48
2021/10/10 08:13:53;;;;;;;13.43;11.73;;;;;;;;;;6257726;28;20310;-49
2021/10/10 08:17:14;;;;;;;13.57;12.33;;;;;;;;;;6258760;28;20232;-48
2021/10/10 08:20:38;;;;;;;14.20;12.80;;;;;;;;;;6256038;28;20497;-49
2021/10/10 08:24:00;;;;;;;15.53;13.57;;;;;;;;;;6259252;28;20231;-53
2021/10/10 08:27:22;;;;;;;14.80;12.87;;;;;;;;;;6258495;28;20697;-48
2021/10/10 08:30:42;;;;;;;15.90;13.83;;;;;;;;;;6260756;28;20193;-51
2021/10/10 08:34:03;;;;;;;14.47;12.60;;;;;;;;;;6264133;28;20334;-51
2021/10/10 08:37:25;;;;;;;14.17;12.43;;;;;;;;;;6252907;28;20645;-53
2021/10/10 08:40:47;;;;;;;14.00;12.50;;;;;;;;;;6261935;28;20208;-51
2021/10/10 08:44:11;;;;;;;14.60;13.10;;;;;;;;;;6262719;28;20232;-51
2021/10/10 08:47:32;;;;;;;13.70;12.50;;;;;;;;;;6254200;28;20566;-52
2021/10/10 08:50:54;;;;;;;15.27;12.93;;;;;;;;;;6250858;28;20694;-51
2021/10/10 08:54:18;;;;;;;117.77;62.37;;;;;;;;;;6265677;28;20689;-49
2021/10/10 08:57:38;;;;;;;31.33;28.20;;;;;;;;;;6266148;28;20235;-49
2021/10/10 09:01:04;;;;;;;210.90;188.50;;;;;;;;;;6261489;28;20208;-53
2021/10/10 09:04:25;;;;;;;946.90;843.73;;;;;;;;;;6261927;28;20311;-54
2021/10/10 09:07:45;;;;;;;848.80;739.37;;;;;;;;;;6263388;28;21031;-52
2021/10/10 09:11:09;;;;;;;230.17;211.90;;;;;;;;;;6263080;28;20220;-53
2021/10/10 09:14:29;;;;;;;51.23;45.63;;;;;;;;;;6264679;28;20240;-52
2021/10/10 09:17:56;;;;;;;34.93;31.90;;;;;;;;;;6262442;28;20614;-53
2021/10/10 09:21:18;;;;;;;134.37;122.07;;;;;;;;;;6263999;28;20200;-51
2021/10/10 09:24:39;;;;;;;67.27;61.30;;;;;;;;;;6263802;28;20224;-51
2021/10/10 09:28:18;;;;;;;14.57;13.23;;;;;;;;;;6262991;28;20554;-50
2021/10/10 09:31:39;;;;;;;12.97;11.67;;;;;;;;;;6263071;28;20192;-50
2021/10/10 09:34:59;;;;;;;12.50;11.30;;;;;;;;;;6267402;28;20204;-52
2021/10/10 09:38:23;;;;;;;12.03;10.83;;;;;;;;;;6265934;28;20238;-49
2021/10/10 09:41:53;;;;;;;13.40;12.03;;;;;;;;;;6264056;28;20224;-54
2021/10/10 09:45:16;;;;;;;13.87;12.47;;;;;;;;;;6265343;28;20192;-54
2021/10/10 09:48:39;;;;;;;12.47;11.07;;;;;;;;;;6263701;28;20695;-51
2021/10/10 09:52:10;;;;;;;13.23;10.60;;;;;;;;;;6263533;28;20224;-54
2021/10/10 09:55:31;;;;;;;14.83;11.40;;;;;;;;;;6266159;28;20212;-53
2021/10/10 09:58:51;;;;;;;12.53;11.40;;;;;;;;;;6263421;28;20235;-54
2021/10/10 10:02:13;;;;;;;14.83;13.23;;;;;;;;;;6260221;28;20227;-52
2021/10/10 10:05:34;;;;;;;12.00;10.67;;;;;;;;;;6262568;28;20585;-53
2021/10/10 10:08:55;;;;;;;12.90;11.70;;;;;;;;;;6264515;28;20228;-50
2021/10/10 10:12:16;;;;;;;13.90;12.40;;;;;;;;;;6258368;28;20322;-54
2021/10/10 10:15:37;;;;;;;17.13;14.17;;;;;;;;;;6262252;28;20208;-52
2021/10/10 10:18:59;;;;;;;13.87;12.10;;;;;;;;;;6261643;28;20228;-53
2021/10/10 10:22:21;;;;;;;15.70;12.57;;;;;;;;;;6259442;28;20318;-52
2021/10/10 10:25:41;;;;;;;14.70;13.17;;;;;;;;;;6261942;28;20196;-51
2021/10/10 10:29:03;;;;;;;16.17;12.73;;;;;;;;;;6265618;28;20251;-50
2021/10/10 10:32:24;;;;;;;13.83;12.43;;;;;;;;;;6265557;28;20315;-53
2021/10/10 10:35:48;;;;;;;14.10;11.80;;;;;;;;;;6266091;28;20234;-54
2021/10/10 10:39:28;;;;;;;13.73;12.33;;;;;;;;;;6260859;28;20231;-51
2021/10/10 10:42:49;;;;;;;14.27;12.13;;;;;;;;;;6262836;28;20237;-50
2021/10/10 10:46:10;;;;;;;14.15;12.68;;;;;;;;;;6263986;28;20208;-52
2021/10/10 10:50:02;;;;;;;12.20;10.98;;;;;;;;;;6264680;28;20227;-52
2021/10/10 10:53:25;;;;;;;12.38;10.85;;;;;;;;;;6214876;28;20640;-51
2021/10/10 10:56:45;;;;;;;10.70;9.70;;;;;;;;;;6262680;28;20988;-50
2021/10/10 11:00:07;;;;;;;12.05;10.85;;;;;;;;;;6265844;28;20196;-52
2021/10/10 11:03:28;;;;;;;12.90;10.45;;;;;;;;;;6261470;28;20231;-53
2021/10/10 11:06:53;;;;;;;13.15;11.80;;;;;;;;;;6258280;28;20224;-50
2021/10/10 11:10:17;;;;;;;12.70;11.68;;;;;;;;;;6260028;28;20192;-52
2021/10/10 11:13:38;;;;;;;14.35;13.00;;;;;;;;;;6266009;28;20219;-48
2021/10/10 11:17:05;;;;;;;16.30;14.60;;;;;;;;;;6267673;28;20314;-48
2021/10/10 11:20:26;;;;;;;12.52;11.32;;;;;;;;;;6269287;28;20196;-52
2021/10/10 11:23:50;;;;;;;12.77;11.55;;;;;;;;;;6264326;28;20235;-50
2021/10/10 11:27:13;;;;;;;13.02;11.70;;;;;;;;;;6265041;28;20227;-53
2021/10/10 11:30:33;;;;;;;12.85;11.65;;;;;;;;;;6266408;28;20208;-50
2021/10/10 11:33:56;;;;;;;12.65;11.00;;;;;;;;;;6266325;28;20338;-50
2021/10/10 11:37:18;;;;;;;12.02;10.68;;;;;;;;;;6265716;28;20227;-53
2021/10/10 11:40:42;;;;;;;12.95;11.85;;;;;;;;;;6264082;28;20204;-49
2021/10/10 11:44:05;;;;;;;13.10;11.90;;;;;;;;;;6266344;28;20220;-52
2021/10/10 11:47:29;;;;;;;11.93;10.57;;;;;;;;;;6268502;28;20231;-49
2021/10/10 11:50:49;;;;;;;12.83;11.57;;;;;;;;;;6265839;28;20213;-47
2021/10/10 11:54:23;;;;;;;11.13;10.13;;;;;;;;;;6266895;28;20219;-50
2021/10/10 11:57:44;;;;;;;13.83;12.57;;;;;;;;;;6268197;28;20235;-50
2021/10/10 12:01:10;;;;;;;11.17;9.97;;;;;;;;;;6267828;28;20201;-53
2021/10/10 12:04:30;;;;;;;11.67;10.53;;;;;;;;;;6264147;28;20212;-51
2021/10/10 12:07:53;;;;;;;14.77;12.87;;;;;;;;;;6267443;28;20753;-52
2021/10/10 12:11:13;;;;;;;13.38;11.02;;;;;;;;;;6267937;28;20211;-53
2021/10/10 12:14:44;;;;;;;12.55;11.43;;;;;;;;;;6266173;28;20315;-51
2021/10/10 12:18:11;;;;;;;13.23;9.80;;;;;;;;;;6262515;28;20223;-49
2021/10/10 12:21:32;;;;;;;18.60;15.55;;;;;;;;;;6267242;28;20444;-51
2021/10/10 12:24:53;;;;;;;12.50;11.25;;;;;;;;;;6265002;28;20996;-49
2021/10/10 12:28:14;;;;;;;13.82;12.07;;;;;;;;;;6262509;28;20318;-51
2021/10/10 12:31:35;;;;;;;11.13;9.93;;;;;;;;;;6263450;28;20279;-54
2021/10/10 12:35:15;;;;;;;14.27;11.73;;;;;;;;;;6267635;28;20681;-52
2021/10/10 12:38:36;;;;;;;12.27;11.18;;;;;;;;;;6265669;28;20598;-49
2021/10/10 12:41:57;;;;;;;12.65;10.27;;;;;;;;;;6265324;28;20266;-50
2021/10/10 12:45:21;;;;;;;11.48;10.00;;;;;;;;;;6262340;28;20303;-52
2021/10/10 12:48:42;;;;;;;10.98;9.88;;;;;;;;;;6259556;28;20741;-53
2021/10/10 12:52:05;;;;;;;9.93;9.02;;;;;;;;;;6260007;28;20602;-53
2021/10/10 12:55:27;;;;;;;17.00;10.82;;;;;;;;;;6261489;28;20212;-53
2021/10/10 12:58:48;;;;;;;10.05;9.05;;;;;;;;;;6260370;28;20259;-52
2021/10/10 13:02:09;;;;;;;12.10;11.00;;;;;;;;;;6261873;28;20235;-52
2021/10/10 13:05:31;;;;;;;10.80;9.73;;;;;;;;;;6259839;28;20236;-53
2021/10/10 13:08:54;;;;;;;13.27;12.05;;;;;;;;;;6253204;28;20231;-52
2021/10/10 13:12:14;;;;;;;16.95;11.77;;;;;;;;;;6258895;28;20255;-53
2021/10/10 13:15:35;;;;;;;10.77;9.68;;;;;;;;;;6254212;28;20693;-53
2021/10/10 13:18:55;;;;;;;10.38;9.30;;;;;;;;;;6258733;28;20707;-49
2021/10/10 13:22:17;;;;;;;11.07;9.95;;;;;;;;;;6256587;28;20734;-52
2021/10/10 13:25:39;;;;;;;10.40;9.43;;;;;;;;;;6263780;28;20220;-54
2021/10/10 13:29:00;;;;;;;13.13;10.82;;;;;;;;;;6255969;28;20223;-53
2021/10/10 13:32:20;;;;;;;10.07;9.07;;;;;;;;;;6255968;28;20262;-53
2021/10/10 13:35:41;;;;;;;10.60;9.50;;;;;;;;;;6257265;28;20605;-51
2021/10/10 13:39:02;;;;;;;12.43;10.43;;;;;;;;;;6258819;28;20227;-52
2021/10/10 13:42:23;;;;;;;13.07;9.63;;;;;;;;;;6259014;28;20223;-47
2021/10/10 13:45:44;;;;;;;11.35;10.25;;;;;;;;;;6254725;28;20212;-54
2021/10/10 13:49:05;;;;;;;11.05;9.27;;;;;;;;;;6260673;28;20231;-51
2021/10/10 13:52:25;;;;;;;11.05;9.60;;;;;;;;;;6265186;28;20255;-55
2021/10/10 13:55:45;;;;;;;13.10;10.13;;;;;;;;;;6259796;28;20638;-53
2021/10/10 13:59:07;;;;;;;9.57;8.60;;;;;;;;;;6259446;28;20610;-49
2021/10/10 14:02:28;;;;;;;9.88;8.95;;;;;;;;;;6256560;28;20227;-52
2021/10/10 14:05:49;;;;;;;8.25;7.45;;;;;;;;;;6256174;28;20505;-50
2021/10/10 14:09:10;;;;;;;12.10;8.60;;;;;;;;;;6253533;28;20224;-54
2021/10/10 14:12:30;;;;;;;10.15;9.23;;;;;;;;;;6258850;28;20224;-51
2021/10/10 14:15:53;;;;;;;8.68;7.85;;;;;;;;;;6260119;28;20200;-54
2021/10/10 14:19:13;;;;;;;9.68;8.77;;;;;;;;;;6257376;28;20227;-53
2021/10/10 14:22:34;;;;;;;9.70;8.80;;;;;;;;;;6261928;28;20313;-51
2021/10/10 14:25:54;;;;;;;8.55;7.75;;;;;;;;;;6255198;28;20212;-55
2021/10/10 14:29:15;;;;;;;8.38;7.57;;;;;;;;;;6263415;28;20227;-52
2021/10/10 14:32:37;;;;;;;9.82;9.02;;;;;;;;;;6258616;28;20232;-52
2021/10/10 14:35:57;;;;;;;8.10;7.25;;;;;;;;;;6256300;28;20208;-50
2021/10/10 14:39:19;;;;;;;10.30;9.32;;;;;;;;;;6258765;28;20223;-51
2021/10/10 14:42:42;;;;;;;8.73;7.82;;;;;;;;;;6254772;28;20232;-54
2021/10/10 14:46:02;;;;;;;10.68;7.90;;;;;;;;;;6255912;28;20611;-50
2021/10/10 14:49:24;;;;;;;8.68;7.25;;;;;;;;;;6258839;28;20330;-54
2021/10/10 14:52:45;;;;;;;9.43;8.20;;;;;;;;;;6260359;28;20565;-52
2021/10/10 14:56:05;;;;;;;7.88;7.18;;;;;;;;;;6256665;28;20506;-49
2021/10/10 14:59:27;;;;;;;8.50;7.63;;;;;;;;;;6254310;28;20581;-49
2021/10/10 15:02:48;;;;;;;9.82;7.53;;;;;;;;;;6265163;28;20223;-54
2021/10/10 15:06:10;;;;;;;9.60;8.45;;;;;;;;;;6272293;28;20573;-49
2021/10/10 15:09:32;;;;;;;9.75;7.75;;;;;;;;;;6265738;28;20228;-51
2021/10/10 15:12:53;;;;;;;9.47;8.50;;;;;;;;;;6258008;28;20232;-53
2021/10/10 15:16:14;;;;;;;9.23;7.43;;;;;;;;;;6261335;28;20204;-51
2021/10/10 15:19:34;;;;;;;8.60;7.90;;;;;;;;;;6249503;28;20216;-53
2021/10/10 15:22:56;;;;;;;9.13;8.23;;;;;;;;;;6262290;28;20247;-55
2021/10/10 15:26:17;;;;;;;8.83;7.97;;;;;;;;;;6257629;28;20209;-55
2021/10/10 15:29:38;;;;;;;11.20;9.37;;;;;;;;;;6259424;28;20228;-50
2021/10/10 15:32:58;;;;;;;10.27;8.93;;;;;;;;;;6254968;28;20306;-48
2021/10/10 15:36:19;;;;;;;9.67;8.63;;;;;;;;;;6261956;28;20192;-53
2021/10/10 15:39:41;;;;;;;10.03;9.03;;;;;;;;;;6260540;28;20307;-54
2021/10/10 15:43:03;;;;;;;9.73;8.73;;;;;;;;;;6258093;28;20621;-52
2021/10/10 15:46:23;;;;;;;11.93;10.80;;;;;;;;;;6254189;28;20228;-54
2021/10/10 15:49:44;;;;;;;9.33;8.43;;;;;;;;;;6253175;28;20224;-52
2021/10/10 15:53:05;;;;;;;9.23;8.07;;;;;;;;;;6256072;28;20228;-51
2021/10/10 15:56:28;;;;;;;8.83;7.93;;;;;;;;;;6249363;28;20207;-54
2021/10/10 15:59:48;;;;;;;9.30;8.33;;;;;;;;;;6259004;28;20212;-52
2021/10/10 16:03:09;;;;;;;11.23;9.73;;;;;;;;;;6266295;28;20330;-54
2021/10/10 16:06:30;;;;;;;9.30;7.57;;;;;;;;;;6261211;28;20204;-54
2021/10/10 16:09:50;;;;;;;9.63;8.77;;;;;;;;;;6264750;28;20197;-53
2021/10/10 16:13:12;;;;;;;9.23;8.10;;;;;;;;;;6267051;28;20223;-54
2021/10/10 16:16:32;;;;;;;10.47;9.33;;;;;;;;;;6261872;28;20623;-54
2021/10/10 16:19:53;;;;;;;9.97;9.03;;;;;;;;;;6258518;28;20323;-53
2021/10/10 16:23:13;;;;;;;11.00;10.00;;;;;;;;;;6266123;28;20224;-49
2021/10/10 16:26:35;;;;;;;10.67;9.40;;;;;;;;;;6258822;28;20601;-50
2021/10/10 16:29:57;;;;;;;9.60;8.47;;;;;;;;;;6257021;28;20216;-51
2021/10/10 16:33:17;;;;;;;10.00;8.93;;;;;;;;;;6258835;28;20693;-52
2021/10/10 16:36:42;;;;;;;11.53;8.87;;;;;;;;;;6259261;28;20200;-48
2021/10/10 16:40:09;;;;;;;11.30;10.13;;;;;;;;;;6263830;28;20188;-53
2021/10/10 16:43:30;;;;;;;11.73;10.57;;;;;;;;;;6265844;28;20231;-52
2021/10/10 16:46:52;;;;;;;12.80;11.43;;;;;;;;;;6259137;28;20318;-51
2021/10/10 16:50:12;;;;;;;13.10;11.70;;;;;;;;;;6265253;28;20216;-53
2021/10/10 16:53:33;;;;;;;12.37;11.17;;;;;;;;;;6259400;28;20228;-53
2021/10/10 16:56:53;;;;;;;12.10;10.63;;;;;;;;;;6260787;28;20236;-49
2021/10/10 17:00:14;;;;;;;11.50;10.47;;;;;;;;;;6264451;28;20216;-51
2021/10/10 17:03:36;;;;;;;11.93;10.60;;;;;;;;;;6267002;28;20305;-50
2021/10/10 17:06:56;;;;;;;13.40;10.67;;;;;;;;;;6259372;28;20232;-52
2021/10/10 17:10:17;;;;;;;14.07;11.47;;;;;;;;;;6267950;28;20291;-54
2021/10/10 17:13:41;;;;;;;13.10;11.70;;;;;;;;;;6261782;28;20228;-52
2021/10/10 17:17:01;;;;;;;14.37;12.40;;;;;;;;;;6265791;28;20561;-53
2021/10/10 17:20:23;;;;;;;13.60;12.20;;;;;;;;;;6264494;28;20196;-51
2021/10/10 17:23:44;;;;;;;15.07;11.53;;;;;;;;;;6265838;28;20223;-52
2021/10/10 17:27:04;;;;;;;17.10;11.70;;;;;;;;;;6261525;28;20634;-51
2021/10/10 17:30:25;;;;;;;12.77;10.27;;;;;;;;;;6270572;28;20204;-52
2021/10/10 17:33:46;;;;;;;11.97;10.77;;;;;;;;;;6256734;28;20243;-53
2021/10/10 17:37:08;;;;;;;10.40;9.40;;;;;;;;;;6265448;28;20231;-51
2021/10/10 17:40:29;;;;;;;12.90;11.43;;;;;;;;;;6258861;28;20228;-49
2021/10/10 17:43:50;;;;;;;11.57;10.37;;;;;;;;;;6257113;28;20219;-52
2021/10/10 17:47:11;;;;;;;10.33;9.33;;;;;;;;;;6255215;28;20254;-54
2021/10/10 17:50:32;;;;;;;13.23;8.97;;;;;;;;;;6249888;28;20208;-53
2021/10/10 17:53:54;;;;;;;10.87;8.80;;;;;;;;;;6254972;28;20546;-54
2021/10/10 17:57:19;;;;;;;17.90;10.90;;;;;;;;;;6253224;28;20223;-51
2021/10/10 18:11:46;;;;;;;16.53;11.33;;;;;;;;;;6252147;28;20196;-53
2021/10/10 18:15:07;;;;;;;10.57;9.10;;;;;;;;;;6251916;28;21174;-54
2021/10/10 18:18:28;;;;;;;9.40;8.37;;;;;;;;;;6253069;28;22023;-52
2021/10/10 18:21:48;;;;;;;12.47;10.17;;;;;;;;;;6252520;28;20306;-52
2021/10/10 18:25:09;;;;;;;15.33;10.30;;;;;;;;;;6253522;28;20324;-52
2021/10/10 18:28:31;;;;;;;14.23;12.60;;;;;;;;;;6256195;28;20577;-50
2021/10/10 18:31:51;;;;;;;12.97;11.33;;;;;;;;;;6256436;28;20489;-55
2021/10/10 18:35:12;;;;;;;12.60;10.57;;;;;;;;;;6252110;28;20200;-50
2021/10/10 18:38:32;;;;;;;11.50;10.37;;;;;;;;;;6256351;28;20318;-54
2021/10/10 18:41:53;;;;;;;13.63;11.73;;;;;;;;;;6257133;28;20228;-54
2021/10/10 18:45:14;;;;;;;13.50;12.10;;;;;;;;;;6260666;28;20637;-54
2021/10/10 18:48:35;;;;;;;13.10;11.83;;;;;;;;;;6254701;28;20228;-50
2021/10/10 18:51:56;;;;;;;14.40;12.97;;;;;;;;;;6251153;28;20255;-51
2021/10/10 18:55:16;;;;;;;15.93;13.03;;;;;;;;;;6254093;28;20291;-50
2021/10/10 18:58:36;;;;;;;16.27;14.50;;;;;;;;;;6255468;28;20725;-52
2021/10/10 19:01:58;;;;;;;16.47;13.40;;;;;;;;;;6256475;28;20232;-55
2021/10/10 19:05:19;;;;;;;18.37;14.70;;;;;;;;;;6254662;28;20220;-55
2021/10/10 19:08:40;;;;;;;16.23;13.43;;;;;;;;;;6259720;28;20236;-48
2021/10/10 19:12:01;;;;;;;15.40;13.80;;;;;;;;;;6234487;28;20227;-50
2021/10/10 19:15:23;;;;;;;16.13;14.43;;;;;;;;;;6258273;28;20215;-49
2021/10/10 19:18:45;;;;;;;14.23;12.63;;;;;;;;;;6254771;28;20277;-50
2021/10/10 19:22:06;;;;;;;15.53;13.93;;;;;;;;;;6251818;28;20604;-51
2021/10/10 19:25:26;;;;;;;15.67;13.20;;;;;;;;;;6256364;28;20688;-54
2021/10/10 19:28:47;;;;;;;16.13;14.20;;;;;;;;;;6251500;28;20310;-50
2021/10/10 19:32:07;;;;;;;14.67;13.20;;;;;;;;;;6256565;28;20236;-51
2021/10/10 19:35:29;;;;;;;19.43;15.90;;;;;;;;;;6259989;28;20192;-54
2021/10/10 19:38:50;;;;;;;16.73;14.60;;;;;;;;;;6257680;28;20236;-53
2021/10/10 19:42:10;;;;;;;16.57;14.73;;;;;;;;;;6258125;28;20487;-56
2021/10/10 19:45:30;;;;;;;16.57;14.97;;;;;;;;;;6262525;28;20215;-53
2021/10/10 19:48:51;;;;;;;18.63;14.77;;;;;;;;;;6259913;28;20516;-52